sensor_id;sensor_type;location;lat;lon;timestamp;temperature;humidity
35746;DHT22;21870;42.812;74.628;2022-07-29T00:02:06;25.10;80.20
35746;DHT22;21870;42.812;74.628;2022-07-29T00:04:37;25.10;80.30
35746;DHT22;21870;42.812;74.628;2022-07-29T00:07:04;25.10;80.50
35746;DHT22;21870;42.812;74.628;2022-07-29T00:09:31;25.00;80.50
35746;DHT22;21870;42.812;74.628;2022-07-29T00:11:59;25.00;80.60
35746;DHT22;21870;42.812;74.628;2022-07-29T00:14:26;25.00;80.80
35746;DHT22;21870;42.812;74.628;2022-07-29T00:16:52;25.00;80.90
35746;DHT22;21870;42.812;74.628;2022-07-29T00:19:18;25.00;80.80
35746;DHT22;21870;42.812;74.628;2022-07-29T00:21:45;25.00;80.80
35746;DHT22;21870;42.812;74.628;2022-07-29T00:24:11;25.00;81.00
35746;DHT22;21870;42.812;74.628;2022-07-29T00:26:37;25.00;81.20
35746;DHT22;21870;42.812;74.628;2022-07-29T00:29:03;25.00;81.00
35746;DHT22;21870;42.812;74.628;2022-07-29T00:31:30;25.00;81.30
35746;DHT22;21870;42.812;74.628;2022-07-29T00:33:56;25.00;81.00
35746;DHT22;21870;42.812;74.628;2022-07-29T00:36:22;25.00;80.90
35746;DHT22;21870;42.812;74.628;2022-07-29T00:38:49;25.00;81.40
35746;DHT22;21870;42.812;74.628;2022-07-29T00:41:17;25.00;81.10
35746;DHT22;21870;42.812;74.628;2022-07-29T00:43:43;25.10;81.20
35746;DHT22;21870;42.812;74.628;2022-07-29T00:46:10;25.20;81.20
35746;DHT22;21870;42.812;74.628;2022-07-29T00:48:36;25.20;81.00
35746;DHT22;21870;42.812;74.628;2022-07-29T00:51:04;25.20;80.90
35746;DHT22;21870;42.812;74.628;2022-07-29T00:53:31;25.30;81.00
35746;DHT22;21870;42.812;74.628;2022-07-29T00:55:58;25.30;80.90
35746;DHT22;21870;42.812;74.628;2022-07-29T00:58:24;25.30;81.00
35746;DHT22;21870;42.812;74.628;2022-07-29T01:00:52;25.40;81.00
35746;DHT22;21870;42.812;74.628;2022-07-29T01:03:20;25.40;80.90
35746;DHT22;21870;42.812;74.628;2022-07-29T01:05:46;25.50;81.00
35746;DHT22;21870;42.812;74.628;2022-07-29T01:08:14;25.50;81.00
35746;DHT22;21870;42.812;74.628;2022-07-29T01:10:41;25.50;81.10
35746;DHT22;21870;42.812;74.628;2022-07-29T01:13:09;25.60;81.40
35746;DHT22;21870;42.812;74.628;2022-07-29T01:15:44;25.70;81.40
35746;DHT22;21870;42.812;74.628;2022-07-29T01:18:39;25.80;81.40
35746;DHT22;21870;42.812;74.628;2022-07-29T01:21:21;25.90;81.70
35746;DHT22;21870;42.812;74.628;2022-07-29T01:26:35;26.00;81.40
35746;DHT22;21870;42.812;74.628;2022-07-29T01:29:11;26.10;81.00
35746;DHT22;21870;42.812;74.628;2022-07-29T01:31:58;26.20;81.00
35746;DHT22;21870;42.812;74.628;2022-07-29T01:34:41;26.20;80.90
35746;DHT22;21870;42.812;74.628;2022-07-29T01:40:24;26.40;81.30
35746;DHT22;21870;42.812;74.628;2022-07-29T01:42:59;26.50;80.90
35746;DHT22;21870;42.812;74.628;2022-07-29T01:45:45;26.60;82.40
35746;DHT22;21870;42.812;74.628;2022-07-29T01:48:16;26.60;81.30
35746;DHT22;21870;42.812;74.628;2022-07-29T01:51:43;26.70;80.70
35746;DHT22;21870;42.812;74.628;2022-07-29T01:54:06;26.80;81.40
35746;DHT22;21870;42.812;74.628;2022-07-29T01:56:35;26.80;81.20
35746;DHT22;21870;42.812;74.628;2022-07-29T01:59:04;26.90;80.60
35746;DHT22;21870;42.812;74.628;2022-07-29T02:01:33;27.00;80.80
35746;DHT22;21870;42.812;74.628;2022-07-29T02:04:03;27.00;80.50
35746;DHT22;21870;42.812;74.628;2022-07-29T02:06:33;27.10;81.00
35746;DHT22;21870;42.812;74.628;2022-07-29T02:09:01;27.20;80.10
35746;DHT22;21870;42.812;74.628;2022-07-29T02:11:29;27.30;80.20
35746;DHT22;21870;42.812;74.628;2022-07-29T02:13:57;27.30;80.30
35746;DHT22;21870;42.812;74.628;2022-07-29T02:16:27;27.40;80.20
35746;DHT22;21870;42.812;74.628;2022-07-29T02:18:56;27.50;81.50
35746;DHT22;21870;42.812;74.628;2022-07-29T02:21:27;27.60;80.10
35746;DHT22;21870;42.812;74.628;2022-07-29T02:23:56;27.70;80.30
35746;DHT22;21870;42.812;74.628;2022-07-29T02:26:24;27.80;80.10
35746;DHT22;21870;42.812;74.628;2022-07-29T02:28:53;27.90;80.30
35746;DHT22;21870;42.812;74.628;2022-07-29T02:31:22;27.90;81.10
35746;DHT22;21870;42.812;74.628;2022-07-29T02:33:50;28.00;80.50
35746;DHT22;21870;42.812;74.628;2022-07-29T02:36:18;28.00;80.00
35746;DHT22;21870;42.812;74.628;2022-07-29T02:38:47;28.10;79.90
35746;DHT22;21870;42.812;74.628;2022-07-29T02:41:20;28.20;78.90
35746;DHT22;21870;42.812;74.628;2022-07-29T02:43:52;28.30;79.60
35746;DHT22;21870;42.812;74.628;2022-07-29T02:46:27;28.30;78.90
35746;DHT22;21870;42.812;74.628;2022-07-29T02:48:59;28.40;79.00
35746;DHT22;21870;42.812;74.628;2022-07-29T02:52:01;28.50;79.10
35746;DHT22;21870;42.812;74.628;2022-07-29T02:54:34;28.60;79.70
35746;DHT22;21870;42.812;74.628;2022-07-29T02:57:09;28.70;79.80
35746;DHT22;21870;42.812;74.628;2022-07-29T02:59:37;28.80;79.60
35746;DHT22;21870;42.812;74.628;2022-07-29T03:02:07;29.00;79.70
35746;DHT22;21870;42.812;74.628;2022-07-29T03:04:35;29.10;79.40
35746;DHT22;21870;42.812;74.628;2022-07-29T03:07:03;29.10;80.10
35746;DHT22;21870;42.812;74.628;2022-07-29T03:09:30;29.20;79.70
35746;DHT22;21870;42.812;74.628;2022-07-29T03:11:57;29.10;79.30
35746;DHT22;21870;42.812;74.628;2022-07-29T03:14:24;29.20;78.40
35746;DHT22;21870;42.812;74.628;2022-07-29T03:16:51;29.40;78.40
35746;DHT22;21870;42.812;74.628;2022-07-29T03:19:19;29.40;77.70
35746;DHT22;21870;42.812;74.628;2022-07-29T03:21:46;29.40;79.20
35746;DHT22;21870;42.812;74.628;2022-07-29T03:24:25;29.50;80.00
35746;DHT22;21870;42.812;74.628;2022-07-29T03:26:51;29.60;79.20
35746;DHT22;21870;42.812;74.628;2022-07-29T03:29:17;29.70;80.50
35746;DHT22;21870;42.812;74.628;2022-07-29T03:31:43;29.70;80.40
35746;DHT22;21870;42.812;74.628;2022-07-29T03:34:09;29.90;78.60
35746;DHT22;21870;42.812;74.628;2022-07-29T03:36:35;30.00;78.10
35746;DHT22;21870;42.812;74.628;2022-07-29T03:39:02;30.00;79.10
35746;DHT22;21870;42.812;74.628;2022-07-29T03:41:30;30.10;79.10
35746;DHT22;21870;42.812;74.628;2022-07-29T03:43:58;30.10;78.70
35746;DHT22;21870;42.812;74.628;2022-07-29T03:46:26;30.00;78.80
35746;DHT22;21870;42.812;74.628;2022-07-29T03:48:58;30.20;76.70
35746;DHT22;21870;42.812;74.628;2022-07-29T03:51:26;30.30;77.20
35746;DHT22;21870;42.812;74.628;2022-07-29T03:53:52;30.40;77.70
35746;DHT22;21870;42.812;74.628;2022-07-29T03:56:21;30.40;79.00
35746;DHT22;21870;42.812;74.628;2022-07-29T03:58:51;30.50;78.50
35746;DHT22;21870;42.812;74.628;2022-07-29T04:01:19;30.50;79.20
35746;DHT22;21870;42.812;74.628;2022-07-29T04:03:46;30.40;78.40
35746;DHT22;21870;42.812;74.628;2022-07-29T04:06:12;30.40;78.30
35746;DHT22;21870;42.812;74.628;2022-07-29T04:08:38;30.50;79.40
35746;DHT22;21870;42.812;74.628;2022-07-29T04:11:05;30.50;78.30
35746;DHT22;21870;42.812;74.628;2022-07-29T04:13:32;30.50;79.20
35746;DHT22;21870;42.812;74.628;2022-07-29T04:15:58;30.60;78.60
35746;DHT22;21870;42.812;74.628;2022-07-29T04:18:25;30.60;79.30
35746;DHT22;21870;42.812;74.628;2022-07-29T04:20:51;30.80;77.60
35746;DHT22;21870;42.812;74.628;2022-07-29T04:23:17;30.80;76.80
35746;DHT22;21870;42.812;74.628;2022-07-29T04:25:43;31.00;79.00
35746;DHT22;21870;42.812;74.628;2022-07-29T04:28:10;31.20;78.40
35746;DHT22;21870;42.812;74.628;2022-07-29T04:30:37;31.20;78.80
35746;DHT22;21870;42.812;74.628;2022-07-29T04:33:05;31.40;77.40
35746;DHT22;21870;42.812;74.628;2022-07-29T04:35:35;31.40;79.80
35746;DHT22;21870;42.812;74.628;2022-07-29T04:38:01;31.50;77.30
35746;DHT22;21870;42.812;74.628;2022-07-29T04:40:31;31.50;74.80
35746;DHT22;21870;42.812;74.628;2022-07-29T04:42:59;31.50;76.10
35746;DHT22;21870;42.812;74.628;2022-07-29T04:45:26;31.50;76.30
35746;DHT22;21870;42.812;74.628;2022-07-29T04:47:52;31.50;76.30
35746;DHT22;21870;42.812;74.628;2022-07-29T04:50:19;31.70;77.20
35746;DHT22;21870;42.812;74.628;2022-07-29T04:52:45;31.80;75.30
35746;DHT22;21870;42.812;74.628;2022-07-29T04:55:11;32.00;77.10
35746;DHT22;21870;42.812;74.628;2022-07-29T04:57:37;31.70;79.00
35746;DHT22;21870;42.812;74.628;2022-07-29T05:00:05;31.90;76.40
35746;DHT22;21870;42.812;74.628;2022-07-29T05:02:31;32.00;77.80
35746;DHT22;21870;42.812;74.628;2022-07-29T05:04:57;32.10;78.00
35746;DHT22;21870;42.812;74.628;2022-07-29T05:07:23;32.20;76.80
35746;DHT22;21870;42.812;74.628;2022-07-29T05:09:49;32.30;77.50
35746;DHT22;21870;42.812;74.628;2022-07-29T05:12:15;32.30;76.00
35746;DHT22;21870;42.812;74.628;2022-07-29T05:14:42;32.20;76.40
35746;DHT22;21870;42.812;74.628;2022-07-29T05:17:08;32.10;76.90
35746;DHT22;21870;42.812;74.628;2022-07-29T05:19:34;32.10;76.70
35746;DHT22;21870;42.812;74.628;2022-07-29T05:22:00;32.20;76.00
35746;DHT22;21870;42.812;74.628;2022-07-29T05:24:26;32.50;78.40
35746;DHT22;21870;42.812;74.628;2022-07-29T05:26:52;32.50;77.40
35746;DHT22;21870;42.812;74.628;2022-07-29T05:29:18;32.70;76.80
35746;DHT22;21870;42.812;74.628;2022-07-29T05:31:44;32.50;76.30
35746;DHT22;21870;42.812;74.628;2022-07-29T05:34:10;32.40;76.40
35746;DHT22;21870;42.812;74.628;2022-07-29T05:36:36;32.50;78.20
35746;DHT22;21870;42.812;74.628;2022-07-29T05:39:02;32.60;77.60
35746;DHT22;21870;42.812;74.628;2022-07-29T05:41:32;32.90;79.50
35746;DHT22;21870;42.812;74.628;2022-07-29T05:43:58;32.80;79.40
35746;DHT22;21870;42.812;74.628;2022-07-29T05:46:24;32.90;77.80
35746;DHT22;21870;42.812;74.628;2022-07-29T05:48:50;33.00;78.30
35746;DHT22;21870;42.812;74.628;2022-07-29T05:51:16;33.10;76.40
35746;DHT22;21870;42.812;74.628;2022-07-29T05:53:43;33.40;77.00
35746;DHT22;21870;42.812;74.628;2022-07-29T05:56:10;33.40;79.20
35746;DHT22;21870;42.812;74.628;2022-07-29T05:58:36;33.20;77.60
35746;DHT22;21870;42.812;74.628;2022-07-29T06:01:03;33.20;77.90
35746;DHT22;21870;42.812;74.628;2022-07-29T06:03:29;33.20;78.60
35746;DHT22;21870;42.812;74.628;2022-07-29T06:05:55;33.10;78.50
35746;DHT22;21870;42.812;74.628;2022-07-29T06:08:22;33.20;77.80
35746;DHT22;21870;42.812;74.628;2022-07-29T06:10:48;33.30;75.00
35746;DHT22;21870;42.812;74.628;2022-07-29T06:13:14;33.20;75.00
35746;DHT22;21870;42.812;74.628;2022-07-29T06:15:43;33.10;75.30
35746;DHT22;21870;42.812;74.628;2022-07-29T06:18:10;33.20;76.70
35746;DHT22;21870;42.812;74.628;2022-07-29T06:20:37;33.30;76.70
35746;DHT22;21870;42.812;74.628;2022-07-29T06:23:04;33.20;74.80
35746;DHT22;21870;42.812;74.628;2022-07-29T06:25:30;33.20;76.80
35746;DHT22;21870;42.812;74.628;2022-07-29T06:28:00;33.20;76.90
35746;DHT22;21870;42.812;74.628;2022-07-29T06:30:26;33.40;76.00
35746;DHT22;21870;42.812;74.628;2022-07-29T06:32:52;33.50;77.80
35746;DHT22;21870;42.812;74.628;2022-07-29T06:35:18;33.70;76.00
35746;DHT22;21870;42.812;74.628;2022-07-29T06:37:44;33.90;77.30
35746;DHT22;21870;42.812;74.628;2022-07-29T06:40:11;33.80;74.40
35746;DHT22;21870;42.812;74.628;2022-07-29T06:42:55;33.90;74.40
35746;DHT22;21870;42.812;74.628;2022-07-29T06:45:21;33.60;73.70
35746;DHT22;21870;42.812;74.628;2022-07-29T06:47:47;33.70;75.80
35746;DHT22;21870;42.812;74.628;2022-07-29T06:50:14;33.90;74.50
35746;DHT22;21870;42.812;74.628;2022-07-29T06:52:40;34.00;74.80
35746;DHT22;21870;42.812;74.628;2022-07-29T06:55:07;33.90;75.50
35746;DHT22;21870;42.812;74.628;2022-07-29T06:57:33;33.90;75.90
35746;DHT22;21870;42.812;74.628;2022-07-29T07:00:00;33.80;75.10
35746;DHT22;21870;42.812;74.628;2022-07-29T07:02:26;33.80;75.10
35746;DHT22;21870;42.812;74.628;2022-07-29T07:04:58;33.90;76.00
35746;DHT22;21870;42.812;74.628;2022-07-29T07:07:25;34.20;76.10
35746;DHT22;21870;42.812;74.628;2022-07-29T07:09:51;34.30;77.00
35746;DHT22;21870;42.812;74.628;2022-07-29T07:12:17;34.20;74.80
35746;DHT22;21870;42.812;74.628;2022-07-29T07:14:43;34.00;74.60
35746;DHT22;21870;42.812;74.628;2022-07-29T07:17:09;33.80;74.20
35746;DHT22;21870;42.812;74.628;2022-07-29T07:19:35;33.80;73.70
35746;DHT22;21870;42.812;74.628;2022-07-29T07:22:01;33.50;74.80
35746;DHT22;21870;42.812;74.628;2022-07-29T07:24:27;33.30;74.00
35746;DHT22;21870;42.812;74.628;2022-07-29T07:26:53;32.90;74.30
35746;DHT22;21870;42.812;74.628;2022-07-29T07:29:19;32.50;75.10
35746;DHT22;21870;42.812;74.628;2022-07-29T07:31:45;32.40;75.30
35746;DHT22;21870;42.812;74.628;2022-07-29T07:34:11;32.20;75.20
35746;DHT22;21870;42.812;74.628;2022-07-29T07:36:37;32.10;75.90
35746;DHT22;21870;42.812;74.628;2022-07-29T07:39:04;32.20;77.00
35746;DHT22;21870;42.812;74.628;2022-07-29T07:41:31;32.20;78.20
35746;DHT22;21870;42.812;74.628;2022-07-29T07:43:57;32.30;77.90
35746;DHT22;21870;42.812;74.628;2022-07-29T07:46:23;32.40;75.00
35746;DHT22;21870;42.812;74.628;2022-07-29T07:48:49;32.20;75.30
35746;DHT22;21870;42.812;74.628;2022-07-29T07:51:15;32.10;77.10
35746;DHT22;21870;42.812;74.628;2022-07-29T07:53:41;32.00;75.90
35746;DHT22;21870;42.812;74.628;2022-07-29T07:56:07;32.00;76.50
35746;DHT22;21870;42.812;74.628;2022-07-29T07:58:33;32.00;74.30
35746;DHT22;21870;42.812;74.628;2022-07-29T08:01:00;31.90;74.20
35746;DHT22;21870;42.812;74.628;2022-07-29T08:03:27;31.90;74.90
35746;DHT22;21870;42.812;74.628;2022-07-29T08:05:53;31.90;74.50
35746;DHT22;21870;42.812;74.628;2022-07-29T08:08:19;32.00;74.30
35746;DHT22;21870;42.812;74.628;2022-07-29T08:10:46;32.10;77.90
35746;DHT22;21870;42.812;74.628;2022-07-29T08:13:20;32.40;77.00
35746;DHT22;21870;42.812;74.628;2022-07-29T08:15:46;32.80;77.40
35746;DHT22;21870;42.812;74.628;2022-07-29T08:18:15;32.50;78.90
35746;DHT22;21870;42.812;74.628;2022-07-29T08:20:41;32.70;76.80
35746;DHT22;21870;42.812;74.628;2022-07-29T08:23:08;33.00;75.90
35746;DHT22;21870;42.812;74.628;2022-07-29T08:25:36;33.40;73.50
35746;DHT22;21870;42.812;74.628;2022-07-29T08:28:04;33.50;72.70
35746;DHT22;21870;42.812;74.628;2022-07-29T08:30:30;33.60;72.20
35746;DHT22;21870;42.812;74.628;2022-07-29T08:32:58;33.60;73.60
35746;DHT22;21870;42.812;74.628;2022-07-29T08:35:25;33.70;72.80
35746;DHT22;21870;42.812;74.628;2022-07-29T08:37:52;33.70;72.10
35746;DHT22;21870;42.812;74.628;2022-07-29T08:40:20;33.70;74.20
35746;DHT22;21870;42.812;74.628;2022-07-29T08:42:46;33.50;72.10
35746;DHT22;21870;42.812;74.628;2022-07-29T08:45:13;33.40;72.40
35746;DHT22;21870;42.812;74.628;2022-07-29T08:47:39;33.40;73.90
35746;DHT22;21870;42.812;74.628;2022-07-29T08:50:09;33.20;74.00
35746;DHT22;21870;42.812;74.628;2022-07-29T08:52:40;33.20;75.10
35746;DHT22;21870;42.812;74.628;2022-07-29T08:55:08;33.10;73.60
35746;DHT22;21870;42.812;74.628;2022-07-29T08:57:35;32.90;75.00
35746;DHT22;21870;42.812;74.628;2022-07-29T09:00:06;32.70;76.10
35746;DHT22;21870;42.812;74.628;2022-07-29T09:02:38;32.60;74.70
35746;DHT22;21870;42.812;74.628;2022-07-29T09:05:05;32.80;76.50
35746;DHT22;21870;42.812;74.628;2022-07-29T09:07:32;33.10;75.70
35746;DHT22;21870;42.812;74.628;2022-07-29T09:09:59;33.40;73.50
35746;DHT22;21870;42.812;74.628;2022-07-29T09:12:25;33.60;72.10
35746;DHT22;21870;42.812;74.628;2022-07-29T09:14:51;33.50;74.40
35746;DHT22;21870;42.812;74.628;2022-07-29T09:17:17;33.50;72.30
35746;DHT22;21870;42.812;74.628;2022-07-29T09:19:45;33.60;73.50
35746;DHT22;21870;42.812;74.628;2022-07-29T09:22:11;33.90;73.10
35746;DHT22;21870;42.812;74.628;2022-07-29T09:24:45;33.90;73.80
35746;DHT22;21870;42.812;74.628;2022-07-29T09:27:21;34.30;72.70
35746;DHT22;21870;42.812;74.628;2022-07-29T09:29:59;34.40;72.60
35746;DHT22;21870;42.812;74.628;2022-07-29T09:32:25;34.20;73.80
35746;DHT22;21870;42.812;74.628;2022-07-29T09:37:41;34.40;74.00
35746;DHT22;21870;42.812;74.628;2022-07-29T09:40:19;34.60;74.40
35746;DHT22;21870;42.812;74.628;2022-07-29T09:42:45;34.50;72.30
35746;DHT22;21870;42.812;74.628;2022-07-29T09:45:13;34.50;70.80
35746;DHT22;21870;42.812;74.628;2022-07-29T09:47:51;34.60;71.50
35746;DHT22;21870;42.812;74.628;2022-07-29T09:50:17;34.70;72.20
35746;DHT22;21870;42.812;74.628;2022-07-29T09:52:51;34.90;72.50
35746;DHT22;21870;42.812;74.628;2022-07-29T09:55:18;34.80;71.70
35746;DHT22;21870;42.812;74.628;2022-07-29T09:57:45;34.90;74.60
35746;DHT22;21870;42.812;74.628;2022-07-29T10:00:17;34.70;70.90
35746;DHT22;21870;42.812;74.628;2022-07-29T10:02:45;34.90;72.40
35746;DHT22;21870;42.812;74.628;2022-07-29T10:05:28;35.00;70.70
35746;DHT22;21870;42.812;74.628;2022-07-29T10:07:56;35.00;70.20
35746;DHT22;21870;42.812;74.628;2022-07-29T10:10:27;35.00;70.90
35746;DHT22;21870;42.812;74.628;2022-07-29T10:12:58;34.90;70.60
35746;DHT22;21870;42.812;74.628;2022-07-29T10:15:28;34.90;72.50
35746;DHT22;21870;42.812;74.628;2022-07-29T10:17:55;34.70;71.80
35746;DHT22;21870;42.812;74.628;2022-07-29T10:20:23;34.80;71.20
35746;DHT22;21870;42.812;74.628;2022-07-29T10:22:50;34.90;73.00
35746;DHT22;21870;42.812;74.628;2022-07-29T10:25:17;35.00;72.00
35746;DHT22;21870;42.812;74.628;2022-07-29T10:27:47;35.00;71.00
35746;DHT22;21870;42.812;74.628;2022-07-29T10:30:15;35.00;70.20
35746;DHT22;21870;42.812;74.628;2022-07-29T10:43:48;34.60;71.90
35746;DHT22;21870;42.812;74.628;2022-07-29T10:46:14;34.40;72.90
35746;DHT22;21870;42.812;74.628;2022-07-29T10:49:18;34.40;73.20
35746;DHT22;21870;42.812;74.628;2022-07-29T10:54:19;34.50;71.30
35746;DHT22;21870;42.812;74.628;2022-07-29T10:59:44;34.30;72.20
35746;DHT22;21870;42.812;74.628;2022-07-29T11:07:33;34.00;73.30
35746;DHT22;21870;42.812;74.628;2022-07-29T11:15:10;33.70;71.70
35746;DHT22;21870;42.812;74.628;2022-07-29T11:20:41;33.50;72.00
35746;DHT22;21870;42.812;74.628;2022-07-29T11:23:27;33.50;74.10
35746;DHT22;21870;42.812;74.628;2022-07-29T11:26:15;33.50;73.60
35746;DHT22;21870;42.812;74.628;2022-07-29T11:31:37;33.40;74.30
35746;DHT22;21870;42.812;74.628;2022-07-29T11:34:24;33.50;73.90
35746;DHT22;21870;42.812;74.628;2022-07-29T11:39:38;32.90;73.60
35746;DHT22;21870;42.812;74.628;2022-07-29T11:45:01;32.40;74.70
35746;DHT22;21870;42.812;74.628;2022-07-29T11:47:29;32.30;75.50
35746;DHT22;21870;42.812;74.628;2022-07-29T11:49:59;32.30;75.90
35746;DHT22;21870;42.812;74.628;2022-07-29T11:52:37;32.40;75.10
35746;DHT22;21870;42.812;74.628;2022-07-29T11:55:09;32.40;75.00
35746;DHT22;21870;42.812;74.628;2022-07-29T11:57:36;32.40;75.70
35746;DHT22;21870;42.812;74.628;2022-07-29T12:00:05;32.40;76.60
35746;DHT22;21870;42.812;74.628;2022-07-29T12:02:41;32.50;78.10
35746;DHT22;21870;42.812;74.628;2022-07-29T12:05:09;32.50;74.90
35746;DHT22;21870;42.812;74.628;2022-07-29T12:07:37;32.30;74.50
35746;DHT22;21870;42.812;74.628;2022-07-29T12:10:04;32.10;75.40
35746;DHT22;21870;42.812;74.628;2022-07-29T12:12:31;31.90;75.30
35746;DHT22;21870;42.812;74.628;2022-07-29T12:14:57;31.90;75.40
35746;DHT22;21870;42.812;74.628;2022-07-29T12:17:30;31.90;75.40
35746;DHT22;21870;42.812;74.628;2022-07-29T12:19:58;31.80;75.20
35746;DHT22;21870;42.812;74.628;2022-07-29T12:22:33;31.80;76.30
35746;DHT22;21870;42.812;74.628;2022-07-29T12:25:13;31.70;76.50
35746;DHT22;21870;42.812;74.628;2022-07-29T12:27:44;31.70;75.80
35746;DHT22;21870;42.812;74.628;2022-07-29T12:30:14;31.70;76.70
35746;DHT22;21870;42.812;74.628;2022-07-29T12:32:46;31.60;75.70
35746;DHT22;21870;42.812;74.628;2022-07-29T12:35:14;31.60;76.40
35746;DHT22;21870;42.812;74.628;2022-07-29T12:37:43;31.60;75.40
35746;DHT22;21870;42.812;74.628;2022-07-29T12:40:12;31.50;75.60
35746;DHT22;21870;42.812;74.628;2022-07-29T12:42:39;31.50;76.10
35746;DHT22;21870;42.812;74.628;2022-07-29T12:45:06;31.40;76.20
35746;DHT22;21870;42.812;74.628;2022-07-29T12:47:32;31.30;75.40
35746;DHT22;21870;42.812;74.628;2022-07-29T12:50:13;31.20;75.70
35746;DHT22;21870;42.812;74.628;2022-07-29T12:52:44;31.10;77.00
35746;DHT22;21870;42.812;74.628;2022-07-29T12:55:11;31.10;76.50
35746;DHT22;21870;42.812;74.628;2022-07-29T12:57:50;31.10;75.80
35746;DHT22;21870;42.812;74.628;2022-07-29T13:00:25;31.00;76.20
35746;DHT22;21870;42.812;74.628;2022-07-29T13:02:56;31.00;77.20
35746;DHT22;21870;42.812;74.628;2022-07-29T13:05:22;30.90;77.10
35746;DHT22;21870;42.812;74.628;2022-07-29T13:07:50;30.80;77.40
35746;DHT22;21870;42.812;74.628;2022-07-29T13:10:18;30.70;77.60
35746;DHT22;21870;42.812;74.628;2022-07-29T13:13:13;30.60;78.40
35746;DHT22;21870;42.812;74.628;2022-07-29T13:15:43;30.60;77.60
35746;DHT22;21870;42.812;74.628;2022-07-29T13:18:32;30.60;77.90
35746;DHT22;21870;42.812;74.628;2022-07-29T13:21:11;30.60;77.50
35746;DHT22;21870;42.812;74.628;2022-07-29T13:23:38;30.60;77.90
35746;DHT22;21870;42.812;74.628;2022-07-29T13:26:08;30.60;77.60
35746;DHT22;21870;42.812;74.628;2022-07-29T13:28:34;30.60;77.30
35746;DHT22;21870;42.812;74.628;2022-07-29T13:31:01;30.60;80.10
35746;DHT22;21870;42.812;74.628;2022-07-29T13:33:27;30.60;77.60
35746;DHT22;21870;42.812;74.628;2022-07-29T13:35:53;30.60;77.90
35746;DHT22;21870;42.812;74.628;2022-07-29T13:38:19;30.60;77.80
35746;DHT22;21870;42.812;74.628;2022-07-29T13:40:45;30.50;77.30
35746;DHT22;21870;42.812;74.628;2022-07-29T13:43:12;30.40;77.90
35746;DHT22;21870;42.812;74.628;2022-07-29T13:45:38;30.30;78.00
35746;DHT22;21870;42.812;74.628;2022-07-29T13:48:04;30.30;77.30
35746;DHT22;21870;42.812;74.628;2022-07-29T13:50:32;30.30;77.30
35746;DHT22;21870;42.812;74.628;2022-07-29T13:52:58;30.40;77.30
35746;DHT22;21870;42.812;74.628;2022-07-29T13:55:24;30.40;77.70
35746;DHT22;21870;42.812;74.628;2022-07-29T13:57:51;30.40;77.90
35746;DHT22;21870;42.812;74.628;2022-07-29T14:00:17;30.40;77.80
35746;DHT22;21870;42.812;74.628;2022-07-29T14:02:44;30.30;78.00
35746;DHT22;21870;42.812;74.628;2022-07-29T14:05:10;30.40;78.20
35746;DHT22;21870;42.812;74.628;2022-07-29T14:07:37;30.30;78.60
35746;DHT22;21870;42.812;74.628;2022-07-29T14:10:05;30.20;78.70
35746;DHT22;21870;42.812;74.628;2022-07-29T14:12:31;30.20;77.80
35746;DHT22;21870;42.812;74.628;2022-07-29T14:14:57;30.20;78.40
35746;DHT22;21870;42.812;74.628;2022-07-29T14:17:23;30.00;81.00
35746;DHT22;21870;42.812;74.628;2022-07-29T14:19:49;29.90;79.30
35746;DHT22;21870;42.812;74.628;2022-07-29T14:22:18;29.90;78.80
35746;DHT22;21870;42.812;74.628;2022-07-29T14:24:44;29.80;78.10
35746;DHT22;21870;42.812;74.628;2022-07-29T14:27:10;29.90;77.50
35746;DHT22;21870;42.812;74.628;2022-07-29T14:29:37;29.90;77.40
35746;DHT22;21870;42.812;74.628;2022-07-29T14:32:04;29.80;77.60
35746;DHT22;21870;42.812;74.628;2022-07-29T14:34:30;29.70;78.70
35746;DHT22;21870;42.812;74.628;2022-07-29T14:36:56;29.50;79.80
35746;DHT22;21870;42.812;74.628;2022-07-29T14:39:22;29.30;80.80
35746;DHT22;21870;42.812;74.628;2022-07-29T14:41:49;29.20;81.30
35746;DHT22;21870;42.812;74.628;2022-07-29T14:44:17;29.00;81.70
35746;DHT22;21870;42.812;74.628;2022-07-29T14:46:44;28.90;81.70
35746;DHT22;21870;42.812;74.628;2022-07-29T14:49:10;28.90;81.80
35746;DHT22;21870;42.812;74.628;2022-07-29T14:51:36;28.80;81.80
35746;DHT22;21870;42.812;74.628;2022-07-29T14:54:02;28.70;82.30
35746;DHT22;21870;42.812;74.628;2022-07-29T14:56:28;28.60;82.90
35746;DHT22;21870;42.812;74.628;2022-07-29T14:58:56;28.50;83.00
35746;DHT22;21870;42.812;74.628;2022-07-29T15:01:23;28.50;83.20
35746;DHT22;21870;42.812;74.628;2022-07-29T15:03:50;28.40;83.20
35746;DHT22;21870;42.812;74.628;2022-07-29T15:06:16;28.40;83.10
35746;DHT22;21870;42.812;74.628;2022-07-29T15:08:42;28.40;83.00
35746;DHT22;21870;42.812;74.628;2022-07-29T15:11:09;28.40;83.10
35746;DHT22;21870;42.812;74.628;2022-07-29T15:13:35;28.40;83.80
35746;DHT22;21870;42.812;74.628;2022-07-29T15:16:01;28.30;83.90
35746;DHT22;21870;42.812;74.628;2022-07-29T15:18:27;28.20;83.60
35746;DHT22;21870;42.812;74.628;2022-07-29T15:20:53;28.20;83.10
35746;DHT22;21870;42.812;74.628;2022-07-29T15:23:19;28.20;83.20
35746;DHT22;21870;42.812;74.628;2022-07-29T15:25:46;28.20;83.40
35746;DHT22;21870;42.812;74.628;2022-07-29T15:28:12;28.20;83.30
35746;DHT22;21870;42.812;74.628;2022-07-29T15:30:38;28.10;83.30
35746;DHT22;21870;42.812;74.628;2022-07-29T15:33:08;28.20;83.20
35746;DHT22;21870;42.812;74.628;2022-07-29T15:35:35;28.10;83.20
35746;DHT22;21870;42.812;74.628;2022-07-29T15:38:02;28.10;83.30
35746;DHT22;21870;42.812;74.628;2022-07-29T15:40:28;28.10;83.30
35746;DHT22;21870;42.812;74.628;2022-07-29T15:42:55;28.10;83.20
35746;DHT22;21870;42.812;74.628;2022-07-29T15:45:21;28.10;82.90
35746;DHT22;21870;42.812;74.628;2022-07-29T15:47:47;28.10;83.00
35746;DHT22;21870;42.812;74.628;2022-07-29T15:50:13;28.10;83.20
35746;DHT22;21870;42.812;74.628;2022-07-29T15:52:42;28.10;83.30
35746;DHT22;21870;42.812;74.628;2022-07-29T15:55:11;28.10;83.40
35746;DHT22;21870;42.812;74.628;2022-07-29T15:57:37;28.10;85.30
35746;DHT22;21870;42.812;74.628;2022-07-29T16:00:05;27.60;88.10
35746;DHT22;21870;42.812;74.628;2022-07-29T16:02:32;27.40;88.90
35746;DHT22;21870;42.812;74.628;2022-07-29T16:04:58;27.30;89.20
35746;DHT22;21870;42.812;74.628;2022-07-29T16:07:24;27.30;89.20
35746;DHT22;21870;42.812;74.628;2022-07-29T16:09:50;27.20;90.10
35746;DHT22;21870;42.812;74.628;2022-07-29T16:12:16;27.20;89.60